Ljungbyhed, Sweden

12:06 AM CET on Februari 18, 2019 (GMT +0100)
Ljungbyhed Karbingatan | | Change Station

Elev 167 ft 56.07 °N, 13.23 °E | Updated 8 seconds ago

Fog
Dimma
39.2 °F
Feels Like 39 °F
N
2.5
Vind Växlande Vind from SO
Gusts 3.4 miles/tim

Idag
High -- | Low -- °F
--% Chance of Precip.
Yesterday
High -- | Low -- °F
Precip. -- tum
Lufttryck 30.15 tum
Sikt 0.6 miles
Molnigt Molnigt 1900 ft
Vindavkylning 39 °F
Daggpunkt 39 °F
Luftfuktighet 99%
Rainfall 0.00 tum
Snow Depth Not available.
7:26 AM 5:16 PM
Andra kvarteret, 96% visible
METAR ESTA 172150Z 13007KT 0900 R14/P1500N R32/P1500N FG OVC019 05/04 Q1021
Lufttryck 30.15 tum
Sikt 0.6 miles
Molnigt Molnigt 1900 ft
Vindavkylning 39 °F
Daggpunkt 39 °F
Luftfuktighet 99%
Rainfall 0.00 tum
Snow Depth Not available.
7:26 AM 5:16 PM
Andra kvarteret, 96% visible
METAR ESTA 172150Z 13007KT 0900 R14/P1500N R32/P1500N FG OVC019 05/04 Q1021

Get Severe Weather Alerts

Thanks for signing up!

Be on the lookout for a verification email in your inbox.

You'll start receiving the daily forecast at 6 AM.

×

10-Day Weather Forecast

×

Almanac

Astronomi

Feb. 18, 2019 Rise Set
Actual Time
Civil Twilight
Nautical Twilight
Astronomical Twilight
Månen
Length Of Visible Light
Dagens längd
Tomorrow will be .
, % of the Moon is Illuminated

Today's Extremes

Country Highs Country Lows

Community

WunderPhotos

Category 6

Welcome to Category 6. This is the collective home for Weather Underground's featured writeups by Dr. Jeff Masters (right), Bob Henson (left), Chris Burt, and other regular contributors.

Nearby

Air Quality

  Air Quality AQ Index Pollutant
Not available.

Snödjup

Station Depth Elevation

Earthquake Activity

Stad Distance Mag. Time & Date
Minimum magnitude displayed is 2.5.

Coastal Water Temperatures

Plats Temperatur

Stations

Nearby Weather Stations

Station Location Temp Vindavkylning Daggpunkt Luftfuktighet Vind Precip. Elev Uppdaterad Type